PWSweather.com
Personal Weather Stations
Station Observations
SELKIRK1
Ontario, Selkirk, ON N0A 1P0

OntarioSelkirk, ON N0A 1P0

Lat: 42.8083652, Lon: -79.94971040000001

Elevation: 583

Station Type: Acurite 5 in 1

http://gavinsurf.com

High Low Average
Temperature 48.4°F9.1°C 43.7°F6.5°C 46.0°F7.8°C
Dew Point 48.1°F8.9°C 43.4°F6.3°C 45.7°F7.6°C
Winds 17.3 mph 27.8 kmh Calm Calm 6.0 mph E9.7 kmh E
Wind Gusts 19.6 mph31.5 kmh -- 8.0 mph12.9 kmh
Humidity 99% 95% 99%
Pressure 31.80 in1076.9 mb 31.80 in1076.9 mb -
Precipitation 3.75 in95.3 mm - -
Hour Temp Dew Point Humidity Winds Wind Gusts Pressure Precip Precip Rate Daily Precip Total
12:00 AM 46.8°F8.2°C 46.0°F7.8°C 97% 4.6 mph NW7.4 kmh NW 5.8 mph9.3 kmh 31.80 in1076.9 mb - 0.00 in0.0 mm 0.00 in0.0 mm
12:10 AM 46.8°F8.2°C 46.2°F7.9°C 98% 6.9 mph NW11.1 kmh NW 6.9 mph11.1 kmh 31.80 in1076.9 mb - 0.00 in0.0 mm 0.00 in0.0 mm
12:15 AM 46.8°F8.2°C 46.2°F7.9°C 98% 6.9 mph NNE11.1 kmh NNE 8.1 mph13.0 kmh 31.80 in1076.9 mb - 0.00 in0.0 mm 0.00 in0.0 mm
12:20 AM 46.8°F8.2°C 46.2°F7.9°C 98% 4.6 mph N7.4 kmh N 6.9 mph11.1 kmh 31.80 in1076.9 mb - 0.00 in0.0 mm 0.00 in0.0 mm
12:25 AM 46.8°F8.2°C 46.2°F7.9°C 98% 4.6 mph N7.4 kmh N 5.8 mph9.3 kmh 31.80 in1076.9 mb - 0.00 in0.0 mm 0.00 in0.0 mm
12:30 AM 46.8°F8.2°C 46.2°F7.9°C 98% 4.6 mph N7.4 kmh N 5.8 mph9.3 kmh 31.80 in1076.9 mb - 0.00 in0.0 mm 0.00 in0.0 mm
12:35 AM 46.8°F8.2°C 46.2°F7.9°C 98% 4.6 mph NNE7.4 kmh NNE 4.6 mph7.4 kmh 31.80 in1076.9 mb - 0.00 in0.0 mm 0.00 in0.0 mm
12:40 AM 46.6°F8.1°C 46.0°F7.8°C 98% 5.8 mph N9.3 kmh N 6.9 mph11.1 kmh 31.80 in1076.9 mb - 0.00 in0.0 mm 0.00 in0.0 mm
12:45 AM 46.6°F8.1°C 46.0°F7.8°C 98% 4.6 mph N7.4 kmh N 5.8 mph9.3 kmh 31.80 in1076.9 mb - 0.00 in0.0 mm 0.00 in0.0 mm
12:50 AM 46.6°F8.1°C 46.0°F7.8°C 98% 3.5 mph N5.6 kmh N 4.6 mph7.4 kmh 31.80 in1076.9 mb - 0.00 in0.0 mm 0.00 in0.0 mm
12:55 AM 46.6°F8.1°C 46.0°F7.8°C 98% 3.5 mph N5.6 kmh N 3.5 mph5.6 kmh 31.80 in1076.9 mb - 0.00 in0.0 mm 0.00 in0.0 mm
01:00 AM 46.4°F8.0°C 45.8°F7.7°C 98% 2.3 mph NNE3.7 kmh NNE 2.3 mph3.7 kmh 31.80 in1076.9 mb - 0.00 in0.0 mm 0.00 in0.0 mm
01:10 AM 46.3°F7.9°C 45.8°F7.7°C 98% 1.2 mph NNE1.9 kmh NNE 1.2 mph1.9 kmh 31.80 in1076.9 mb - 0.00 in0.0 mm 0.00 in0.0 mm
01:15 AM 46.2°F7.9°C 45.6°F7.6°C 98% 2.3 mph N3.7 kmh N 2.3 mph3.7 kmh 31.80 in1076.9 mb - 0.00 in0.0 mm 0.00 in0.0 mm
01:20 AM 46.2°F7.9°C 45.6°F7.6°C 98% 2.3 mph NNE3.7 kmh NNE 3.5 mph5.6 kmh 31.80 in1076.9 mb - 0.00 in0.0 mm 0.00 in0.0 mm
01:25 AM 46.2°F7.9°C 45.6°F7.6°C 98% 3.5 mph N5.6 kmh N 3.5 mph5.6 kmh 31.80 in1076.9 mb - 0.00 in0.0 mm 0.00 in0.0 mm
01:30 AM 46.2°F7.9°C 45.6°F7.6°C 98% 1.2 mph NNE1.9 kmh NNE 1.2 mph1.9 kmh 31.80 in1076.9 mb - 0.00 in0.0 mm 0.00 in0.0 mm
01:35 AM 46.1°F7.8°C 45.5°F7.5°C 98% 2.3 mph N3.7 kmh N 2.3 mph3.7 kmh 31.80 in1076.9 mb - 0.00 in0.0 mm 0.00 in0.0 mm
01:40 AM 46.1°F7.8°C 45.5°F7.5°C 98% 1.2 mph N1.9 kmh N 1.2 mph1.9 kmh 31.80 in1076.9 mb - 0.00 in0.0 mm 0.00 in0.0 mm
01:45 AM 46.1°F7.8°C 45.5°F7.5°C 98% 2.3 mph N3.7 kmh N 2.3 mph3.7 kmh 31.80 in1076.9 mb - 0.00 in0.0 mm 0.00 in0.0 mm
01:50 AM 46.1°F7.8°C 45.5°F7.5°C 98% Calm Calm -- 31.80 in1076.9 mb - 0.00 in0.0 mm 0.00 in0.0 mm
01:55 AM 46.1°F7.8°C 45.5°F7.5°C 98% 3.5 mph N5.6 kmh N 4.6 mph7.4 kmh 31.80 in1076.9 mb - 0.00 in0.0 mm 0.00 in0.0 mm
02:00 AM 46.1°F7.8°C 45.5°F7.5°C 98% 4.6 mph N7.4 kmh N 4.6 mph7.4 kmh 31.80 in1076.9 mb - 0.00 in0.0 mm 0.00 in0.0 mm
02:10 AM 45.9°F7.7°C 45.7°F7.6°C 99% 4.6 mph NNE7.4 kmh NNE 5.8 mph9.3 kmh 31.80 in1076.9 mb - 0.00 in0.0 mm 0.00 in0.0 mm
02:15 AM 45.9°F7.7°C 45.6°F7.6°C 99% 4.6 mph N7.4 kmh N 4.6 mph7.4 kmh 31.80 in1076.9 mb - 0.00 in0.0 mm 0.00 in0.0 mm
02:20 AM 45.9°F7.7°C 45.6°F7.6°C 99% 4.6 mph N7.4 kmh N 5.8 mph9.3 kmh 31.80 in1076.9 mb - 0.00 in0.0 mm 0.00 in0.0 mm
02:25 AM 45.9°F7.7°C 45.6°F7.6°C 99% 4.6 mph NNE7.4 kmh NNE 4.6 mph7.4 kmh 31.80 in1076.9 mb - 0.00 in0.0 mm 0.00 in0.0 mm
02:30 AM 45.9°F7.7°C 45.6°F7.6°C 99% 5.8 mph N9.3 kmh N 5.8 mph9.3 kmh 31.80 in1076.9 mb - 0.00 in0.0 mm 0.00 in0.0 mm
02:35 AM 45.9°F7.7°C 45.6°F7.6°C 99% 2.3 mph NNE3.7 kmh NNE 2.3 mph3.7 kmh 31.80 in1076.9 mb - 0.00 in0.0 mm 0.00 in0.0 mm
02:40 AM 45.7°F7.6°C 45.4°F7.4°C 99% 4.6 mph N7.4 kmh N 4.6 mph7.4 kmh 31.80 in1076.9 mb - 0.00 in0.0 mm 0.00 in0.0 mm
02:45 AM 45.7°F7.6°C 45.4°F7.4°C 99% 5.8 mph N9.3 kmh N 6.9 mph11.1 kmh 31.80 in1076.9 mb - 0.00 in0.0 mm 0.00 in0.0 mm
02:50 AM 45.7°F7.6°C 45.4°F7.4°C 99% 4.6 mph N7.4 kmh N 5.8 mph9.3 kmh 31.80 in1076.9 mb - 0.00 in0.0 mm 0.00 in0.0 mm
02:55 AM 45.7°F7.6°C 45.4°F7.4°C 99% 5.8 mph N9.3 kmh N 5.8 mph9.3 kmh 31.80 in1076.9 mb - 0.00 in0.0 mm 0.00 in0.0 mm
03:00 AM 45.7°F7.6°C 45.4°F7.4°C 99% 4.6 mph N7.4 kmh N 4.6 mph7.4 kmh 31.80 in1076.9 mb - 0.00 in0.0 mm 0.00 in0.0 mm
03:10 AM 45.7°F7.6°C 45.4°F7.4°C 99% 3.5 mph NNE5.6 kmh NNE 4.6 mph7.4 kmh 31.80 in1076.9 mb - 0.00 in0.0 mm 0.00 in0.0 mm
03:15 AM 45.7°F7.6°C 45.4°F7.4°C 99% 3.5 mph NNE5.6 kmh NNE 4.6 mph7.4 kmh 31.80 in1076.9 mb - 0.00 in0.0 mm 0.00 in0.0 mm
03:20 AM 45.7°F7.6°C 45.4°F7.4°C 99% 4.6 mph N7.4 kmh N 5.8 mph9.3 kmh 31.80 in1076.9 mb - 0.00 in0.0 mm 0.00 in0.0 mm
03:25 AM 45.7°F7.6°C 45.4°F7.4°C 99% 5.8 mph N9.3 kmh N 5.8 mph9.3 kmh 31.80 in1076.9 mb - 0.00 in0.0 mm 0.00 in0.0 mm
03:30 AM 45.7°F7.6°C 45.4°F7.4°C 99% 5.8 mph N9.3 kmh N 5.8 mph9.3 kmh 31.80 in1076.9 mb - 0.00 in0.0 mm 0.00 in0.0 mm
03:35 AM 45.7°F7.6°C 45.4°F7.4°C 99% 4.6 mph NNE7.4 kmh NNE 5.8 mph9.3 kmh 31.80 in1076.9 mb - 0.00 in0.0 mm 0.00 in0.0 mm
03:40 AM 45.7°F7.6°C 45.4°F7.4°C 99% 4.6 mph N7.4 kmh N 5.8 mph9.3 kmh 31.80 in1076.9 mb - 0.00 in0.0 mm 0.00 in0.0 mm
03:45 AM 45.7°F7.6°C 45.4°F7.4°C 99% 5.8 mph N9.3 kmh N 5.8 mph9.3 kmh 31.80 in1076.9 mb - 0.00 in0.0 mm 0.00 in0.0 mm
03:50 AM 45.7°F7.6°C 45.4°F7.4°C 99% 3.5 mph NNE5.6 kmh NNE 3.5 mph5.6 kmh 31.80 in1076.9 mb - 0.00 in0.0 mm 0.00 in0.0 mm
03:55 AM 45.7°F7.6°C 45.4°F7.4°C 99% 2.3 mph N3.7 kmh N 2.3 mph3.7 kmh 31.80 in1076.9 mb - 0.00 in0.0 mm 0.00 in0.0 mm
04:00 AM 45.5°F7.5°C 45.2°F7.3°C 99% 3.5 mph NNE5.6 kmh NNE 3.5 mph5.6 kmh 31.80 in1076.9 mb - 0.00 in0.0 mm 0.00 in0.0 mm
04:10 AM 45.5°F7.5°C 45.2°F7.3°C 99% 2.3 mph NNE3.7 kmh NNE 2.3 mph3.7 kmh 31.80 in1076.9 mb - 0.00 in0.0 mm 0.00 in0.0 mm
04:15 AM 45.3°F7.4°C 45.0°F7.2°C 99% 2.3 mph NNE3.7 kmh NNE 2.3 mph3.7 kmh 31.80 in1076.9 mb - 0.00 in0.0 mm 0.00 in0.0 mm
04:20 AM 45.3°F7.4°C 45.0°F7.2°C 99% 3.5 mph NNE5.6 kmh NNE 3.5 mph5.6 kmh 31.80 in1076.9 mb - 0.00 in0.0 mm 0.00 in0.0 mm
04:25 AM 45.3°F7.4°C 45.0°F7.2°C 99% 3.5 mph NNE5.6 kmh NNE 4.6 mph7.4 kmh 31.80 in1076.9 mb - 0.00 in0.0 mm 0.00 in0.0 mm
04:30 AM 45.3°F7.4°C 45.0°F7.2°C 99% 3.5 mph NNE5.6 kmh NNE 3.5 mph5.6 kmh 31.80 in1076.9 mb - 0.00 in0.0 mm 0.00 in0.0 mm
04:35 AM 45.3°F7.4°C 45.0°F7.2°C 99% 3.5 mph NNE5.6 kmh NNE 3.5 mph5.6 kmh 31.80 in1076.9 mb - 0.00 in0.0 mm 0.00 in0.0 mm
04:40 AM 45.2°F7.3°C 44.9°F7.2°C 99% 3.5 mph NE5.6 kmh NE 3.5 mph5.6 kmh 31.80 in1076.9 mb - 0.00 in0.0 mm 0.00 in0.0 mm
04:45 AM 45.2°F7.3°C 44.9°F7.2°C 99% 3.5 mph NNE5.6 kmh NNE 3.5 mph5.6 kmh 31.80 in1076.9 mb - 0.00 in0.0 mm 0.00 in0.0 mm
04:50 AM 45.2°F7.3°C 44.9°F7.2°C 99% 3.5 mph NNE5.6 kmh NNE 4.6 mph7.4 kmh 31.80 in1076.9 mb - 0.00 in0.0 mm 0.00 in0.0 mm
04:55 AM 45.2°F7.3°C 44.9°F7.2°C 99% 3.5 mph NNE5.6 kmh NNE 3.5 mph5.6 kmh 31.80 in1076.9 mb - 0.00 in0.0 mm 0.00 in0.0 mm
05:00 AM 45.0°F7.2°C 44.7°F7.1°C 99% 3.5 mph NE5.6 kmh NE 3.5 mph5.6 kmh 31.80 in1076.9 mb - 0.01 in0.3 mm 0.01 in0.3 mm
05:10 AM 45.0°F7.2°C 44.7°F7.1°C 99% 4.6 mph N7.4 kmh N 4.6 mph7.4 kmh 31.80 in1076.9 mb - 0.01 in0.3 mm 0.01 in0.3 mm
05:15 AM 45.0°F7.2°C 44.7°F7.1°C 99% 4.6 mph NNW7.4 kmh NNW 5.8 mph9.3 kmh 31.80 in1076.9 mb - 0.02 in0.5 mm 0.02 in0.5 mm
05:20 AM 45.0°F7.2°C 44.7°F7.1°C 99% 4.6 mph N7.4 kmh N 5.8 mph9.3 kmh 31.80 in1076.9 mb - 0.02 in0.5 mm 0.02 in0.5 mm
05:25 AM 45.0°F7.2°C 44.7°F7.1°C 99% 4.6 mph NNW7.4 kmh NNW 4.6 mph7.4 kmh 31.80 in1076.9 mb - 0.03 in0.8 mm 0.03 in0.8 mm
05:30 AM 45.0°F7.2°C 44.7°F7.1°C 99% 4.6 mph N7.4 kmh N 4.6 mph7.4 kmh 31.80 in1076.9 mb - 0.04 in1.0 mm 0.04 in1.0 mm
05:35 AM 45.0°F7.2°C 44.7°F7.1°C 99% 2.3 mph N3.7 kmh N 3.5 mph5.6 kmh 31.80 in1076.9 mb - 0.04 in1.0 mm 0.04 in1.0 mm
05:40 AM 44.8°F7.1°C 44.5°F6.9°C 99% 2.3 mph NNE3.7 kmh NNE 2.3 mph3.7 kmh 31.80 in1076.9 mb - 0.04 in1.0 mm 0.04 in1.0 mm
05:45 AM 44.8°F7.1°C 44.5°F6.9°C 99% Calm Calm -- 31.80 in1076.9 mb - 0.04 in1.0 mm 0.04 in1.0 mm
05:50 AM 44.8°F7.1°C 44.5°F6.9°C 99% 2.3 mph SE3.7 kmh SE 2.3 mph3.7 kmh 31.80 in1076.9 mb - 0.04 in1.0 mm 0.04 in1.0 mm
05:55 AM 45.2°F7.3°C 44.4°F6.9°C 97% 2.3 mph SSE3.7 kmh SSE 2.3 mph3.7 kmh 31.80 in1076.9 mb - 0.05 in1.3 mm 0.05 in1.3 mm
06:00 AM 45.9°F7.7°C 44.9°F7.2°C 96% 3.5 mph ESE5.6 kmh ESE 5.8 mph9.3 kmh 31.80 in1076.9 mb - 0.05 in1.3 mm 0.06 in1.5 mm
06:10 AM 46.5°F8.1°C 45.4°F7.4°C 96% 2.3 mph S3.7 kmh S 4.6 mph7.4 kmh 31.80 in1076.9 mb - 0.05 in1.3 mm 0.06 in1.5 mm
06:15 AM 46.8°F8.2°C 45.4°F7.4°C 95% 2.3 mph WNW3.7 kmh WNW 4.6 mph7.4 kmh 31.80 in1076.9 mb - 0.05 in1.3 mm 0.07 in1.8 mm
06:20 AM 46.8°F8.2°C 45.5°F7.5°C 95% 2.3 mph S3.7 kmh S 4.6 mph7.4 kmh 31.80 in1076.9 mb - 0.05 in1.3 mm 0.07 in1.8 mm
06:25 AM 47.0°F8.3°C 45.6°F7.6°C 95% 2.3 mph E3.7 kmh E 2.3 mph3.7 kmh 31.80 in1076.9 mb - 0.05 in1.3 mm 0.08 in2.0 mm
06:30 AM 46.8°F8.2°C 45.7°F7.6°C 96% 2.3 mph NNE3.7 kmh NNE 2.3 mph3.7 kmh 31.80 in1076.9 mb - 0.04 in1.0 mm 0.08 in2.0 mm
06:35 AM 46.8°F8.2°C 45.7°F7.6°C 96% 1.2 mph E1.9 kmh E 2.3 mph3.7 kmh 31.80 in1076.9 mb - 0.06 in1.5 mm 0.10 in2.5 mm
06:40 AM 46.8°F8.2°C 46.0°F7.8°C 97% 2.3 mph NE3.7 kmh NE 4.6 mph7.4 kmh 31.80 in1076.9 mb - 0.06 in1.5 mm 0.10 in2.5 mm
06:45 AM 47.0°F8.3°C 46.4°F8.0°C 98% 2.3 mph ESE3.7 kmh ESE 2.3 mph3.7 kmh 31.80 in1076.9 mb - 0.07 in1.8 mm 0.11 in2.8 mm
06:50 AM 47.1°F8.4°C 46.5°F8.1°C 98% 1.2 mph SE1.9 kmh SE 2.3 mph3.7 kmh 31.80 in1076.9 mb - 0.08 in2.0 mm 0.12 in3.0 mm
06:55 AM 47.0°F8.3°C 46.4°F8.0°C 98% 3.5 mph ENE5.6 kmh ENE 3.5 mph5.6 kmh 31.80 in1076.9 mb - 0.07 in1.8 mm 0.12 in3.0 mm
07:00 AM 47.0°F8.3°C 46.7°F8.2°C 99% 2.3 mph SE3.7 kmh SE 2.3 mph3.7 kmh 31.80 in1076.9 mb - 0.07 in1.8 mm 0.13 in3.3 mm
07:10 AM 47.0°F8.3°C 46.7°F8.2°C 99% 3.5 mph S5.6 kmh S 4.6 mph7.4 kmh 31.80 in1076.9 mb - 0.10 in2.5 mm 0.16 in4.1 mm
07:15 AM 47.1°F8.4°C 46.8°F8.2°C 99% 2.3 mph WNW3.7 kmh WNW 4.6 mph7.4 kmh 31.80 in1076.9 mb - 0.10 in2.5 mm 0.17 in4.3 mm
07:20 AM 47.3°F8.5°C 47.0°F8.3°C 99% 3.5 mph S5.6 kmh S 3.5 mph5.6 kmh 31.80 in1076.9 mb - 0.11 in2.8 mm 0.18 in4.6 mm
07:25 AM 47.3°F8.5°C 47.0°F8.3°C 99% 2.3 mph SSE3.7 kmh SSE 6.9 mph11.1 kmh 31.80 in1076.9 mb - 0.10 in2.5 mm 0.18 in4.6 mm
07:30 AM 47.3°F8.5°C 46.7°F8.2°C 98% 2.3 mph SSE3.7 kmh SSE 3.5 mph5.6 kmh 31.80 in1076.9 mb - 0.11 in2.8 mm 0.19 in4.8 mm
07:35 AM 47.1°F8.4°C 46.5°F8.1°C 98% 3.5 mph SE5.6 kmh SE 4.6 mph7.4 kmh 31.80 in1076.9 mb - 0.11 in2.8 mm 0.20 in5.1 mm
07:40 AM 47.3°F8.5°C 47.0°F8.3°C 99% 2.3 mph E3.7 kmh E 4.6 mph7.4 kmh 31.80 in1076.9 mb - 0.11 in2.8 mm 0.21 in5.3 mm
07:45 AM 47.5°F8.6°C 47.2°F8.4°C 99% 1.2 mph WNW1.9 kmh WNW 1.2 mph1.9 kmh 31.80 in1076.9 mb - 0.11 in2.8 mm 0.22 in5.6 mm
07:50 AM 47.2°F8.4°C 47.0°F8.3°C 99% 3.5 mph SW5.6 kmh SW 3.5 mph5.6 kmh 31.80 in1076.9 mb - 0.12 in3.0 mm 0.24 in6.1 mm
07:55 AM 47.3°F8.5°C 47.0°F8.3°C 99% 2.3 mph S3.7 kmh S 2.3 mph3.7 kmh 31.80 in1076.9 mb - 0.14 in3.6 mm 0.26 in6.6 mm
08:00 AM 47.1°F8.4°C 46.8°F8.2°C 99% 2.3 mph SSE3.7 kmh SSE 5.8 mph9.3 kmh 31.80 in1076.9 mb - 0.14 in3.6 mm 0.27 in6.9 mm
08:10 AM 47.0°F8.3°C 46.7°F8.2°C 99% 2.3 mph E3.7 kmh E 2.3 mph3.7 kmh 31.80 in1076.9 mb - 0.15 in3.8 mm 0.31 in7.9 mm
08:15 AM 47.0°F8.3°C 46.7°F8.2°C 99% 2.3 mph ESE3.7 kmh ESE 4.6 mph7.4 kmh 31.80 in1076.9 mb - 0.16 in4.1 mm 0.32 in8.1 mm
08:20 AM 47.0°F8.3°C 46.7°F8.2°C 99% 2.3 mph ENE3.7 kmh ENE 2.3 mph3.7 kmh 31.80 in1076.9 mb - 0.16 in4.1 mm 0.34 in8.6 mm
08:25 AM 46.8°F8.2°C 46.5°F8.1°C 99% 2.3 mph ESE3.7 kmh ESE 2.3 mph3.7 kmh 31.80 in1076.9 mb - 0.17 in4.3 mm 0.35 in8.9 mm
08:30 AM 46.8°F8.2°C 46.5°F8.1°C 99% 4.6 mph ESE7.4 kmh ESE 4.6 mph7.4 kmh 31.80 in1076.9 mb - 0.18 in4.6 mm 0.37 in9.4 mm
08:35 AM 46.8°F8.2°C 46.5°F8.1°C 99% 3.5 mph ESE5.6 kmh ESE 3.5 mph5.6 kmh 31.80 in1076.9 mb - 0.17 in4.3 mm 0.37 in9.4 mm
08:40 AM 46.8°F8.2°C 46.5°F8.1°C 99% 2.3 mph E3.7 kmh E 2.3 mph3.7 kmh 31.80 in1076.9 mb - 0.19 in4.8 mm 0.40 in10.2 mm
08:45 AM 46.8°F8.2°C 46.5°F8.1°C 99% 3.5 mph E5.6 kmh E 3.5 mph5.6 kmh 31.80 in1076.9 mb - 0.20 in5.1 mm 0.42 in10.7 mm
08:50 AM 46.6°F8.1°C 46.3°F7.9°C 99% 3.5 mph NNE5.6 kmh NNE 3.5 mph5.6 kmh 31.80 in1076.9 mb - 0.18 in4.6 mm 0.42 in10.7 mm
08:55 AM 46.4°F8.0°C 46.2°F7.9°C 99% 2.3 mph NE3.7 kmh NE 3.5 mph5.6 kmh 31.80 in1076.9 mb - 0.19 in4.8 mm 0.44 in11.2 mm
09:00 AM 46.2°F7.9°C 46.0°F7.8°C 99% 3.5 mph N5.6 kmh N 4.6 mph7.4 kmh 31.80 in1076.9 mb - 0.17 in4.3 mm 0.44 in11.2 mm
09:10 AM 45.9°F7.7°C 45.6°F7.6°C 99% 3.5 mph NNW5.6 kmh NNW 3.5 mph5.6 kmh 31.80 in1076.9 mb - 0.16 in4.1 mm 0.46 in11.7 mm
09:15 AM 45.7°F7.6°C 45.4°F7.4°C 99% 2.3 mph NNE3.7 kmh NNE 2.3 mph3.7 kmh 31.80 in1076.9 mb - 0.15 in3.8 mm 0.47 in11.9 mm
09:20 AM 45.7°F7.6°C 45.4°F7.4°C 99% 2.3 mph NE3.7 kmh NE 2.3 mph3.7 kmh 31.80 in1076.9 mb - 0.15 in3.8 mm 0.48 in12.2 mm
09:25 AM 45.7°F7.6°C 45.4°F7.4°C 99% 1.2 mph NNE1.9 kmh NNE 1.2 mph1.9 kmh 31.80 in1076.9 mb - 0.13 in3.3 mm 0.48 in12.2 mm
09:30 AM 45.9°F7.7°C 45.6°F7.6°C 99% 2.3 mph NE3.7 kmh NE 1.2 mph1.9 kmh 31.80 in1076.9 mb - 0.12 in3.0 mm 0.48 in12.2 mm
09:35 AM 45.9°F7.7°C 45.6°F7.6°C 99% 2.3 mph E3.7 kmh E 2.3 mph3.7 kmh 31.80 in1076.9 mb - 0.12 in3.0 mm 0.49 in12.4 mm
09:40 AM 45.9°F7.7°C 45.6°F7.6°C 99% 2.3 mph E3.7 kmh E 2.3 mph3.7 kmh 31.80 in1076.9 mb - 0.09 in2.3 mm 0.49 in12.4 mm
09:45 AM 46.1°F7.8°C 45.8°F7.7°C 99% 2.3 mph ENE3.7 kmh ENE 2.3 mph3.7 kmh 31.80 in1076.9 mb - 0.08 in2.0 mm 0.49 in12.4 mm
09:50 AM 46.2°F7.9°C 45.9°F7.7°C 99% 2.3 mph NE3.7 kmh NE 2.3 mph3.7 kmh 31.80 in1076.9 mb - 0.08 in2.0 mm 0.50 in12.7 mm
09:55 AM 46.2°F7.9°C 45.9°F7.7°C 99% 2.3 mph E3.7 kmh E 2.3 mph3.7 kmh 31.80 in1076.9 mb - 0.07 in1.8 mm 0.50 in12.7 mm
10:00 AM 46.4°F8.0°C 46.1°F7.8°C 99% 2.3 mph ENE3.7 kmh ENE 3.5 mph5.6 kmh 31.80 in1076.9 mb - 0.07 in1.8 mm 0.51 in13.0 mm
10:10 AM 46.6°F8.1°C 46.3°F7.9°C 99% Calm Calm 1.2 mph1.9 kmh 31.80 in1076.9 mb - 0.08 in2.0 mm 0.54 in13.7 mm
10:15 AM 46.8°F8.2°C 46.5°F8.1°C 99% 2.3 mph ESE3.7 kmh ESE 2.3 mph3.7 kmh 31.80 in1076.9 mb - 0.10 in2.5 mm 0.56 in14.2 mm
10:20 AM 46.8°F8.2°C 46.5°F8.1°C 99% 2.3 mph E3.7 kmh E 2.3 mph3.7 kmh 31.80 in1076.9 mb - 0.08 in2.0 mm 0.56 in14.2 mm
10:25 AM 46.8°F8.2°C 46.5°F8.1°C 99% 2.3 mph SE3.7 kmh SE 2.3 mph3.7 kmh 31.80 in1076.9 mb - 0.09 in2.3 mm 0.57 in14.5 mm
10:30 AM 47.0°F8.3°C 46.7°F8.2°C 99% 3.5 mph ESE5.6 kmh ESE 3.5 mph5.6 kmh 31.80 in1076.9 mb - 0.10 in2.5 mm 0.58 in14.7 mm
10:35 AM 47.0°F8.3°C 46.7°F8.2°C 99% 2.3 mph E3.7 kmh E 3.5 mph5.6 kmh 31.80 in1076.9 mb - 0.10 in2.5 mm 0.59 in15.0 mm
10:40 AM 47.0°F8.3°C 46.7°F8.2°C 99% 3.5 mph E5.6 kmh E 3.5 mph5.6 kmh 31.80 in1076.9 mb - 0.11 in2.8 mm 0.60 in15.2 mm
10:45 AM 47.1°F8.4°C 46.8°F8.2°C 99% 3.5 mph E5.6 kmh E 4.6 mph7.4 kmh 31.80 in1076.9 mb - 0.12 in3.0 mm 0.61 in15.5 mm
10:50 AM 47.3°F8.5°C 47.0°F8.3°C 99% 3.5 mph E5.6 kmh E 4.6 mph7.4 kmh 31.80 in1076.9 mb - 0.13 in3.3 mm 0.63 in16.0 mm
10:55 AM 47.5°F8.6°C 47.2°F8.4°C 99% 3.5 mph E5.6 kmh E 4.6 mph7.4 kmh 31.80 in1076.9 mb - 0.14 in3.6 mm 0.64 in16.3 mm
11:00 AM 47.5°F8.6°C 47.2°F8.4°C 99% 4.6 mph ESE7.4 kmh ESE 4.6 mph7.4 kmh 31.80 in1076.9 mb - 0.15 in3.8 mm 0.66 in16.8 mm
11:10 AM 47.5°F8.6°C 47.2°F8.4°C 99% 4.6 mph E7.4 kmh E 5.8 mph9.3 kmh 31.80 in1076.9 mb - 0.14 in3.6 mm 0.68 in17.3 mm
11:15 AM 47.5°F8.6°C 47.2°F8.4°C 99% 3.5 mph ESE5.6 kmh ESE 3.5 mph5.6 kmh 31.80 in1076.9 mb - 0.13 in3.3 mm 0.69 in17.5 mm
11:20 AM 47.7°F8.7°C 47.4°F8.6°C 99% 3.5 mph E5.6 kmh E 5.8 mph9.3 kmh 31.80 in1076.9 mb - 0.14 in3.6 mm 0.70 in17.8 mm
11:25 AM 47.7°F8.7°C 47.5°F8.6°C 99% 3.5 mph NE5.6 kmh NE 4.6 mph7.4 kmh 31.80 in1076.9 mb - 0.15 in3.8 mm 0.71 in18.0 mm
11:30 AM 48.0°F8.9°C 47.7°F8.7°C 99% 4.6 mph ENE7.4 kmh ENE 5.8 mph9.3 kmh 31.80 in1076.9 mb - 0.14 in3.6 mm 0.72 in18.3 mm
11:35 AM 47.9°F8.8°C 47.6°F8.7°C 99% 4.6 mph E7.4 kmh E 5.8 mph9.3 kmh 31.80 in1076.9 mb - 0.15 in3.8 mm 0.74 in18.8 mm
11:40 AM 48.0°F8.9°C 47.7°F8.7°C 99% 4.6 mph SE7.4 kmh SE 5.8 mph9.3 kmh 31.80 in1076.9 mb - 0.15 in3.8 mm 0.75 in19.1 mm
11:45 AM 48.0°F8.9°C 47.7°F8.7°C 99% 3.5 mph NE5.6 kmh NE 3.5 mph5.6 kmh 31.80 in1076.9 mb - 0.15 in3.8 mm 0.76 in19.3 mm
11:50 AM 48.0°F8.9°C 47.7°F8.7°C 99% 4.6 mph WSW7.4 kmh WSW 5.8 mph9.3 kmh 31.80 in1076.9 mb - 0.13 in3.3 mm 0.76 in19.3 mm
11:55 AM 48.0°F8.9°C 47.7°F8.7°C 99% 4.6 mph ESE7.4 kmh ESE 5.8 mph9.3 kmh 31.80 in1076.9 mb - 0.13 in3.3 mm 0.77 in19.6 mm
12:00 PM 48.0°F8.9°C 47.7°F8.7°C 99% 2.3 mph SW3.7 kmh SW 4.6 mph7.4 kmh 31.80 in1076.9 mb - 0.12 in3.0 mm 0.78 in19.8 mm
12:10 PM 48.4°F9.1°C 48.1°F8.9°C 99% 3.5 mph E5.6 kmh E 4.6 mph7.4 kmh 31.80 in1076.9 mb - 0.11 in2.8 mm 0.79 in20.1 mm
12:15 PM 48.4°F9.1°C 48.1°F8.9°C 99% 3.5 mph SE5.6 kmh SE 4.6 mph7.4 kmh 31.80 in1076.9 mb - 0.12 in3.0 mm 0.80 in20.3 mm
12:20 PM 48.4°F9.1°C 48.1°F8.9°C 99% 3.5 mph ESE5.6 kmh ESE 6.9 mph11.1 kmh 31.80 in1076.9 mb - 0.10 in2.5 mm 0.80 in20.3 mm
12:25 PM 48.2°F9.0°C 47.9°F8.8°C 99% 4.6 mph E7.4 kmh E 4.6 mph7.4 kmh 31.80 in1076.9 mb - 0.11 in2.8 mm 0.82 in20.8 mm
12:30 PM 48.2°F9.0°C 47.9°F8.8°C 99% 3.5 mph NE5.6 kmh NE 4.6 mph7.4 kmh 31.80 in1076.9 mb - 0.10 in2.5 mm 0.82 in20.8 mm
12:35 PM 48.2°F9.0°C 47.9°F8.8°C 99% 4.6 mph ESE7.4 kmh ESE 5.8 mph9.3 kmh 31.80 in1076.9 mb - 0.10 in2.5 mm 0.83 in21.1 mm
12:40 PM 47.9°F8.8°C 47.6°F8.7°C 99% 4.6 mph SE7.4 kmh SE 5.8 mph9.3 kmh 31.80 in1076.9 mb - 0.09 in2.3 mm 0.83 in21.1 mm
12:45 PM 47.5°F8.6°C 47.2°F8.4°C 99% 5.8 mph E9.3 kmh E 6.9 mph11.1 kmh 31.80 in1076.9 mb - 0.08 in2.0 mm 0.84 in21.3 mm
12:50 PM 47.5°F8.6°C 47.2°F8.4°C 99% 3.5 mph E5.6 kmh E 4.6 mph7.4 kmh 31.80 in1076.9 mb - 0.09 in2.3 mm 0.85 in21.6 mm
12:55 PM 47.5°F8.6°C 47.2°F8.4°C 99% 5.8 mph E9.3 kmh E 5.8 mph9.3 kmh 31.80 in1076.9 mb - 0.09 in2.3 mm 0.86 in21.8 mm
01:00 PM 47.5°F8.6°C 47.2°F8.4°C 99% 4.6 mph ESE7.4 kmh ESE 4.6 mph7.4 kmh 31.80 in1076.9 mb - 0.10 in2.5 mm 0.88 in22.4 mm
01:10 PM 47.5°F8.6°C 47.2°F8.4°C 99% 5.8 mph E9.3 kmh E 8.1 mph13.0 kmh 31.80 in1076.9 mb - 0.12 in3.0 mm 0.91 in23.1 mm
01:15 PM 47.5°F8.6°C 47.2°F8.4°C 99% 5.8 mph E9.3 kmh E 6.9 mph11.1 kmh 31.80 in1076.9 mb - 0.13 in3.3 mm 0.93 in23.6 mm
01:20 PM 47.5°F8.6°C 47.2°F8.4°C 99% 6.9 mph E11.1 kmh E 8.1 mph13.0 kmh 31.80 in1076.9 mb - 0.14 in3.6 mm 0.94 in23.9 mm
01:25 PM 47.3°F8.5°C 47.0°F8.3°C 99% 4.6 mph E7.4 kmh E 5.8 mph9.3 kmh 31.80 in1076.9 mb - 0.15 in3.8 mm 0.96 in24.4 mm
01:30 PM 47.3°F8.5°C 47.0°F8.3°C 99% 4.6 mph SE7.4 kmh SE 6.9 mph11.1 kmh 31.80 in1076.9 mb - 0.16 in4.1 mm 0.98 in24.9 mm
01:35 PM 47.3°F8.5°C 47.0°F8.3°C 99% 5.8 mph ENE9.3 kmh ENE 6.9 mph11.1 kmh 31.80 in1076.9 mb - 0.18 in4.6 mm 1.00 in25.4 mm
01:40 PM 47.3°F8.5°C 47.0°F8.3°C 99% 4.6 mph E7.4 kmh E 5.8 mph9.3 kmh 31.80 in1076.9 mb - 0.19 in4.8 mm 1.02 in25.9 mm
01:45 PM 47.3°F8.5°C 47.0°F8.3°C 99% 4.6 mph E7.4 kmh E 5.8 mph9.3 kmh 31.80 in1076.9 mb - 0.20 in5.1 mm 1.04 in26.4 mm
01:50 PM 47.5°F8.6°C 47.2°F8.4°C 99% 3.5 mph E5.6 kmh E 6.9 mph11.1 kmh 31.80 in1076.9 mb - 0.20 in5.1 mm 1.05 in26.7 mm
01:55 PM 47.5°F8.6°C 47.2°F8.4°C 99% 2.3 mph E3.7 kmh E 4.6 mph7.4 kmh 31.80 in1076.9 mb - 0.21 in5.3 mm 1.07 in27.2 mm
02:00 PM 47.5°F8.6°C 47.2°F8.4°C 99% 5.8 mph ESE9.3 kmh ESE 5.8 mph9.3 kmh 31.80 in1076.9 mb - 0.22 in5.6 mm 1.09 in27.7 mm
02:10 PM 47.3°F8.5°C 47.0°F8.3°C 99% 3.5 mph E5.6 kmh E 5.8 mph9.3 kmh 31.80 in1076.9 mb - 0.21 in5.3 mm 1.12 in28.4 mm
02:15 PM 47.3°F8.5°C 47.0°F8.3°C 99% 5.8 mph E9.3 kmh E 6.9 mph11.1 kmh 31.80 in1076.9 mb - 0.21 in5.3 mm 1.13 in28.7 mm
02:20 PM 47.3°F8.5°C 47.0°F8.3°C 99% 5.8 mph E9.3 kmh E 9.2 mph14.8 kmh 31.80 in1076.9 mb - 0.20 in5.1 mm 1.14 in29.0 mm
02:25 PM 47.3°F8.5°C 47.0°F8.3°C 99% 3.5 mph E5.6 kmh E 3.5 mph5.6 kmh 31.80 in1076.9 mb - 0.18 in4.6 mm 1.14 in29.0 mm
02:30 PM 47.3°F8.5°C 47.0°F8.3°C 99% 4.6 mph E7.4 kmh E 6.9 mph11.1 kmh 31.80 in1076.9 mb - 0.18 in4.6 mm 1.16 in29.5 mm
02:35 PM 47.3°F8.5°C 47.0°F8.3°C 99% 4.6 mph E7.4 kmh E 6.9 mph11.1 kmh 31.80 in1076.9 mb - 0.18 in4.6 mm 1.17 in29.7 mm
02:40 PM 47.1°F8.4°C 46.8°F8.2°C 99% 5.8 mph E9.3 kmh E 6.9 mph11.1 kmh 31.80 in1076.9 mb - 0.17 in4.3 mm 1.18 in30.0 mm
02:45 PM 47.1°F8.4°C 46.8°F8.2°C 99% 4.6 mph E7.4 kmh E 5.8 mph9.3 kmh 31.80 in1076.9 mb - 0.15 in3.8 mm 1.18 in30.0 mm
02:50 PM 47.1°F8.4°C 46.8°F8.2°C 99% 4.6 mph E7.4 kmh E 5.8 mph9.3 kmh 31.80 in1076.9 mb - 0.15 in3.8 mm 1.20 in30.5 mm
02:55 PM 47.1°F8.4°C 46.8°F8.2°C 99% 6.9 mph E11.1 kmh E 8.1 mph13.0 kmh 31.80 in1076.9 mb - 0.14 in3.6 mm 1.21 in30.7 mm
03:00 PM 47.1°F8.4°C 46.8°F8.2°C 99% 6.9 mph E11.1 kmh E 6.9 mph11.1 kmh 31.80 in1076.9 mb - 0.15 in3.8 mm 1.23 in31.2 mm
03:10 PM 47.1°F8.4°C 46.8°F8.2°C 99% 6.9 mph ENE11.1 kmh ENE 6.9 mph11.1 kmh 31.80 in1076.9 mb - 0.13 in3.3 mm 1.25 in31.8 mm
03:15 PM 47.0°F8.3°C 46.7°F8.2°C 99% 6.9 mph E11.1 kmh E 10.4 mph16.7 kmh 31.80 in1076.9 mb - 0.14 in3.6 mm 1.26 in32.0 mm
03:20 PM 46.9°F8.3°C 46.6°F8.1°C 99% 5.8 mph E9.3 kmh E 6.9 mph11.1 kmh 31.80 in1076.9 mb - 0.13 in3.3 mm 1.27 in32.3 mm
03:25 PM 46.6°F8.1°C 46.4°F8.0°C 99% 8.1 mph E13.0 kmh E 9.2 mph14.8 kmh 31.80 in1076.9 mb - 0.14 in3.6 mm 1.28 in32.5 mm
03:30 PM 46.6°F8.1°C 46.3°F7.9°C 99% 8.1 mph ENE13.0 kmh ENE 11.5 mph18.5 kmh 31.80 in1076.9 mb - 0.13 in3.3 mm 1.29 in32.8 mm
03:35 PM 46.4°F8.0°C 46.1°F7.8°C 99% 9.2 mph ENE14.8 kmh ENE 15.0 mph24.1 kmh 31.80 in1076.9 mb - 0.13 in3.3 mm 1.30 in33.0 mm
03:40 PM 46.2°F7.9°C 45.9°F7.7°C 99% 8.1 mph E13.0 kmh E 5.8 mph9.3 kmh 31.80 in1076.9 mb - 0.13 in3.3 mm 1.31 in33.3 mm
03:45 PM 46.2°F7.9°C 45.9°F7.7°C 99% 11.5 mph ESE18.5 kmh ESE 11.5 mph18.5 kmh 31.80 in1076.9 mb - 0.14 in3.6 mm 1.32 in33.5 mm
03:50 PM 46.2°F7.9°C 45.9°F7.7°C 99% 6.9 mph E11.1 kmh E 9.2 mph14.8 kmh 31.80 in1076.9 mb - 0.13 in3.3 mm 1.33 in33.8 mm
03:55 PM 46.2°F7.9°C 45.9°F7.7°C 99% 9.2 mph E14.8 kmh E 10.4 mph16.7 kmh 31.80 in1076.9 mb - 0.13 in3.3 mm 1.34 in34.0 mm
04:00 PM 46.2°F7.9°C 45.9°F7.7°C 99% 5.8 mph ESE9.3 kmh ESE 6.9 mph11.1 kmh 31.80 in1076.9 mb - 0.14 in3.6 mm 1.36 in34.5 mm
04:10 PM 46.1°F7.8°C 45.9°F7.7°C 99% 6.9 mph ENE11.1 kmh ENE 9.2 mph14.8 kmh 31.80 in1076.9 mb - 0.14 in3.6 mm 1.39 in35.3 mm
04:15 PM 46.1°F7.8°C 45.8°F7.7°C 99% 6.9 mph NE11.1 kmh NE 10.4 mph16.7 kmh 31.80 in1076.9 mb - 0.15 in3.8 mm 1.41 in35.8 mm
04:20 PM 45.9°F7.7°C 45.6°F7.6°C 99% 8.1 mph E13.0 kmh E 9.2 mph14.8 kmh 31.80 in1076.9 mb - 0.17 in4.3 mm 1.44 in36.6 mm
04:25 PM 45.9°F7.7°C 45.6°F7.6°C 99% 5.8 mph E9.3 kmh E 6.9 mph11.1 kmh 31.80 in1076.9 mb - 0.18 in4.6 mm 1.46 in37.1 mm
04:30 PM 45.9°F7.7°C 45.6°F7.6°C 99% 5.8 mph ENE9.3 kmh ENE 5.8 mph9.3 kmh 31.80 in1076.9 mb - 0.19 in4.8 mm 1.48 in37.6 mm
04:35 PM 45.9°F7.7°C 45.6°F7.6°C 99% 8.1 mph E13.0 kmh E 9.2 mph14.8 kmh 31.80 in1076.9 mb - 0.20 in5.1 mm 1.50 in38.1 mm
04:40 PM 45.7°F7.6°C 45.4°F7.4°C 99% 11.5 mph ENE18.5 kmh ENE 11.5 mph18.5 kmh 31.80 in1076.9 mb - 0.22 in5.6 mm 1.53 in38.9 mm
04:45 PM 45.7°F7.6°C 45.4°F7.4°C 99% 10.4 mph ENE16.7 kmh ENE 11.5 mph18.5 kmh 31.80 in1076.9 mb - 0.25 in6.4 mm 1.56 in39.6 mm
04:50 PM 45.7°F7.6°C 45.4°F7.4°C 99% 6.9 mph ENE11.1 kmh ENE 10.4 mph16.7 kmh 31.80 in1076.9 mb - 0.26 in6.6 mm 1.59 in40.4 mm
04:55 PM 45.5°F7.5°C 45.2°F7.3°C 99% 9.2 mph E14.8 kmh E 11.5 mph18.5 kmh 31.80 in1076.9 mb - 0.27 in6.9 mm 1.61 in40.9 mm
05:00 PM 45.5°F7.5°C 45.2°F7.3°C 99% 13.8 mph ENE22.2 kmh ENE 15.0 mph24.1 kmh 31.80 in1076.9 mb - 0.26 in6.6 mm 1.62 in41.1 mm
05:10 PM 45.5°F7.5°C 45.2°F7.3°C 99% 9.2 mph ENE14.8 kmh ENE 10.4 mph16.7 kmh 31.80 in1076.9 mb - 0.26 in6.6 mm 1.64 in41.7 mm
05:15 PM 45.5°F7.5°C 45.2°F7.3°C 99% 8.1 mph NE13.0 kmh NE 6.9 mph11.1 kmh 31.80 in1076.9 mb - 0.23 in5.8 mm 1.64 in41.7 mm
05:20 PM 45.5°F7.5°C 45.2°F7.3°C 99% 8.1 mph ENE13.0 kmh ENE 12.7 mph20.4 kmh 31.80 in1076.9 mb - 0.22 in5.6 mm 1.65 in41.9 mm
05:25 PM 45.5°F7.5°C 45.2°F7.3°C 99% 6.9 mph E11.1 kmh E 10.4 mph16.7 kmh 31.80 in1076.9 mb - 0.20 in5.1 mm 1.66 in42.2 mm
05:30 PM 45.3°F7.4°C 45.0°F7.2°C 99% 10.4 mph ENE16.7 kmh ENE 12.7 mph20.4 kmh 31.80 in1076.9 mb - 0.18 in4.6 mm 1.66 in42.2 mm
05:35 PM 45.3°F7.4°C 45.0°F7.2°C 99% 9.2 mph E14.8 kmh E 10.4 mph16.7 kmh 31.80 in1076.9 mb - 0.17 in4.3 mm 1.67 in42.4 mm
05:40 PM 45.3°F7.4°C 45.0°F7.2°C 99% 6.9 mph ENE11.1 kmh ENE 6.9 mph11.1 kmh 31.80 in1076.9 mb - 0.16 in4.1 mm 1.68 in42.7 mm
05:45 PM 45.3°F7.4°C 45.0°F7.2°C 99% 6.9 mph NE11.1 kmh NE 9.2 mph14.8 kmh 31.80 in1076.9 mb - 0.16 in4.1 mm 1.70 in43.2 mm
05:50 PM 45.2°F7.3°C 44.9°F7.2°C 99% 6.9 mph ENE11.1 kmh ENE 8.1 mph13.0 kmh 31.80 in1076.9 mb - 0.14 in3.6 mm 1.72 in43.7 mm
05:55 PM 45.2°F7.3°C 44.9°F7.2°C 99% 6.9 mph ENE11.1 kmh ENE 8.1 mph13.0 kmh 31.80 in1076.9 mb - 0.13 in3.3 mm 1.74 in44.2 mm
06:00 PM 45.2°F7.3°C 44.9°F7.2°C 99% 6.9 mph ENE11.1 kmh ENE 9.2 mph14.8 kmh 31.80 in1076.9 mb - 0.14 in3.6 mm 1.76 in44.7 mm
06:10 PM 45.2°F7.3°C 44.9°F7.2°C 99% 6.9 mph ENE11.1 kmh ENE 10.4 mph16.7 kmh 31.80 in1076.9 mb - 0.17 in4.3 mm 1.81 in46.0 mm
06:15 PM 45.2°F7.3°C 44.9°F7.2°C 99% 8.1 mph ENE13.0 kmh ENE 10.4 mph16.7 kmh 31.80 in1076.9 mb - 0.20 in5.1 mm 1.84 in46.7 mm
06:20 PM 45.2°F7.3°C 44.9°F7.2°C 99% 6.9 mph NE11.1 kmh NE 10.4 mph16.7 kmh 31.80 in1076.9 mb - 0.21 in5.3 mm 1.88 in47.8 mm
06:25 PM 45.2°F7.3°C 44.9°F7.2°C 99% 8.1 mph NE13.0 kmh NE 10.4 mph16.7 kmh 31.80 in1076.9 mb - 0.26 in6.6 mm 1.91 in48.5 mm
06:30 PM 45.2°F7.3°C 44.9°F7.2°C 99% 9.2 mph NE14.8 kmh NE 10.4 mph16.7 kmh 31.80 in1076.9 mb - 0.29 in7.4 mm 1.95 in49.5 mm
06:35 PM 45.2°F7.3°C 44.9°F7.2°C 99% 10.4 mph NE16.7 kmh NE 10.4 mph16.7 kmh 31.80 in1076.9 mb - 0.30 in7.6 mm 1.97 in50.0 mm
06:40 PM 45.2°F7.3°C 44.9°F7.2°C 99% 9.2 mph ENE14.8 kmh ENE 10.4 mph16.7 kmh 31.80 in1076.9 mb - 0.34 in8.6 mm 2.02 in51.3 mm
06:45 PM 45.2°F7.3°C 44.9°F7.2°C 99% 9.2 mph NE14.8 kmh NE 10.4 mph16.7 kmh 31.80 in1076.9 mb - 0.34 in8.6 mm 2.04 in51.8 mm
06:50 PM 45.2°F7.3°C 44.9°F7.2°C 99% 8.1 mph ENE13.0 kmh ENE 10.4 mph16.7 kmh 31.80 in1076.9 mb - 0.35 in8.9 mm 2.06 in52.3 mm
06:55 PM 45.2°F7.3°C 44.9°F7.2°C 99% 9.2 mph NE14.8 kmh NE 11.5 mph18.5 kmh 31.80 in1076.9 mb - 0.35 in8.9 mm 2.08 in52.8 mm
07:00 PM 45.2°F7.3°C 44.9°F7.2°C 99% 10.4 mph ENE16.7 kmh ENE 11.5 mph18.5 kmh 31.80 in1076.9 mb - 0.36 in9.1 mm 2.12 in53.8 mm
07:10 PM 45.2°F7.3°C 44.9°F7.2°C 99% 11.5 mph NE18.5 kmh NE 16.1 mph25.9 kmh 31.80 in1076.9 mb - 0.36 in9.1 mm 2.16 in54.9 mm
07:15 PM 45.2°F7.3°C 44.9°F7.2°C 99% 9.2 mph E14.8 kmh E 8.1 mph13.0 kmh 31.80 in1076.9 mb - 0.34 in8.6 mm 2.19 in55.6 mm
07:20 PM 45.2°F7.3°C 44.9°F7.2°C 99% 9.2 mph NE14.8 kmh NE 10.4 mph16.7 kmh 31.80 in1076.9 mb - 0.36 in9.1 mm 2.22 in56.4 mm
07:25 PM 45.2°F7.3°C 44.9°F7.2°C 99% 9.2 mph ENE14.8 kmh ENE 9.2 mph14.8 kmh 31.80 in1076.9 mb - 0.35 in8.9 mm 2.25 in57.2 mm
07:30 PM 45.2°F7.3°C 44.9°F7.2°C 99% 10.4 mph ENE16.7 kmh ENE 11.5 mph18.5 kmh 31.80 in1076.9 mb - 0.34 in8.6 mm 2.28 in57.9 mm
07:35 PM 45.2°F7.3°C 44.9°F7.2°C 99% 6.9 mph ENE11.1 kmh ENE 8.1 mph13.0 kmh 31.80 in1076.9 mb - 0.35 in8.9 mm 2.32 in58.9 mm
07:40 PM 45.2°F7.3°C 44.9°F7.2°C 99% 9.2 mph E14.8 kmh E 9.2 mph14.8 kmh 31.80 in1076.9 mb - 0.37 in9.4 mm 2.34 in59.4 mm
07:45 PM 45.2°F7.3°C 44.9°F7.2°C 99% 9.2 mph E14.8 kmh E 9.2 mph14.8 kmh 31.80 in1076.9 mb - 0.30 in7.6 mm 2.34 in59.4 mm
07:50 PM 45.0°F7.2°C 44.7°F7.1°C 99% 11.5 mph NE18.5 kmh NE 12.7 mph20.4 kmh 31.80 in1076.9 mb - 0.34 in8.6 mm 2.40 in61.0 mm
07:55 PM 45.0°F7.2°C 44.7°F7.1°C 99% 10.4 mph NE16.7 kmh NE 12.7 mph20.4 kmh 31.80 in1076.9 mb - 0.35 in8.9 mm 2.43 in61.7 mm
08:00 PM 45.0°F7.2°C 44.7°F7.1°C 99% 10.4 mph ENE16.7 kmh ENE 11.5 mph18.5 kmh 31.80 in1076.9 mb - 0.37 in9.4 mm 2.48 in63.0 mm
08:10 PM 45.0°F7.2°C 44.7°F7.1°C 99% 10.4 mph ENE16.7 kmh ENE 13.8 mph22.2 kmh 31.80 in1076.9 mb - 0.42 in10.7 mm 2.59 in65.8 mm
08:15 PM 45.0°F7.2°C 44.7°F7.1°C 99% 9.2 mph ENE14.8 kmh ENE 11.5 mph18.5 kmh 31.80 in1076.9 mb - 0.46 in11.7 mm 2.64 in67.1 mm
08:20 PM 45.0°F7.2°C 44.7°F7.1°C 99% 9.2 mph NE14.8 kmh NE 16.1 mph25.9 kmh 31.80 in1076.9 mb - 0.46 in11.7 mm 2.68 in68.1 mm
08:25 PM 45.0°F7.2°C 44.7°F7.1°C 99% 10.4 mph E16.7 kmh E 11.5 mph18.5 kmh 31.80 in1076.9 mb - 0.48 in12.2 mm 2.72 in69.1 mm
08:30 PM 45.0°F7.2°C 44.7°F7.1°C 99% 9.2 mph ENE14.8 kmh ENE 11.5 mph18.5 kmh 31.80 in1076.9 mb - 0.49 in12.4 mm 2.77 in70.4 mm
08:35 PM 45.0°F7.2°C 44.7°F7.1°C 99% 11.5 mph E18.5 kmh E 11.5 mph18.5 kmh 31.80 in1076.9 mb - 0.49 in12.4 mm 2.80 in71.1 mm
08:40 PM 45.0°F7.2°C 44.7°F7.1°C 99% 11.5 mph NE18.5 kmh NE 12.7 mph20.4 kmh 31.80 in1076.9 mb - 0.48 in12.2 mm 2.82 in71.6 mm
08:45 PM 45.0°F7.2°C 44.7°F7.1°C 99% 10.4 mph NE16.7 kmh NE 13.8 mph22.2 kmh 31.80 in1076.9 mb - 0.53 in13.5 mm 2.87 in72.9 mm
08:50 PM 45.0°F7.2°C 44.7°F7.1°C 99% 13.8 mph NE22.2 kmh NE 15.0 mph24.1 kmh 31.80 in1076.9 mb - 0.49 in12.4 mm 2.89 in73.4 mm
08:55 PM 45.0°F7.2°C 44.7°F7.1°C 99% 15.0 mph NE24.1 kmh NE 15.0 mph24.1 kmh 31.80 in1076.9 mb - 0.47 in11.9 mm 2.89 in73.4 mm
09:00 PM 45.0°F7.2°C 44.7°F7.1°C 99% 11.5 mph ENE18.5 kmh ENE 9.2 mph14.8 kmh 31.80 in1076.9 mb - 0.47 in11.9 mm 2.94 in74.7 mm
09:10 PM 45.0°F7.2°C 44.7°F7.1°C 99% 12.7 mph ENE20.4 kmh ENE 16.1 mph25.9 kmh 31.80 in1076.9 mb - 0.46 in11.7 mm 3.04 in77.2 mm
09:15 PM 45.0°F7.2°C 44.7°F7.1°C 99% 9.2 mph ENE14.8 kmh ENE 11.5 mph18.5 kmh 31.80 in1076.9 mb - 0.43 in10.9 mm 3.06 in77.7 mm
09:20 PM 45.0°F7.2°C 44.7°F7.1°C 99% 12.7 mph ENE20.4 kmh ENE 15.0 mph24.1 kmh 31.80 in1076.9 mb - 0.40 in10.2 mm 3.07 in78.0 mm
09:25 PM 45.0°F7.2°C 44.7°F7.1°C 99% 15.0 mph NE24.1 kmh NE 15.0 mph24.1 kmh 31.80 in1076.9 mb - 0.36 in9.1 mm 3.07 in78.0 mm
09:30 PM 45.0°F7.2°C 44.7°F7.1°C 99% 11.5 mph NE18.5 kmh NE 17.3 mph27.8 kmh 31.80 in1076.9 mb - 0.34 in8.6 mm 3.10 in78.7 mm
09:35 PM 45.2°F7.3°C 44.9°F7.2°C 99% 10.4 mph NE16.7 kmh NE 13.8 mph22.2 kmh 31.80 in1076.9 mb - 0.32 in8.1 mm 3.11 in79.0 mm
09:40 PM 45.2°F7.3°C 44.9°F7.2°C 99% 12.7 mph NE20.4 kmh NE 16.1 mph25.9 kmh 31.80 in1076.9 mb - 0.30 in7.6 mm 3.12 in79.2 mm
09:45 PM 45.2°F7.3°C 44.9°F7.2°C 99% 11.5 mph E18.5 kmh E 12.7 mph20.4 kmh 31.80 in1076.9 mb - 0.28 in7.1 mm 3.14 in79.8 mm
09:50 PM 45.2°F7.3°C 44.9°F7.2°C 99% 11.5 mph NE18.5 kmh NE 15.0 mph24.1 kmh 31.80 in1076.9 mb - 0.28 in7.1 mm 3.17 in80.5 mm
09:55 PM 45.2°F7.3°C 44.9°F7.2°C 99% 12.7 mph NE20.4 kmh NE 15.0 mph24.1 kmh 31.80 in1076.9 mb - 0.32 in8.1 mm 3.21 in81.5 mm
10:00 PM 45.2°F7.3°C 44.9°F7.2°C 99% 13.8 mph NE22.2 kmh NE 16.1 mph25.9 kmh 31.80 in1076.9 mb - 0.34 in8.6 mm 3.28 in83.3 mm
10:10 PM 45.2°F7.3°C 44.9°F7.2°C 99% 12.7 mph NE20.4 kmh NE 13.8 mph22.2 kmh 31.80 in1076.9 mb - 0.38 in9.7 mm 3.42 in86.9 mm
10:15 PM 45.2°F7.3°C 44.9°F7.2°C 99% 11.5 mph NE18.5 kmh NE 12.7 mph20.4 kmh 31.80 in1076.9 mb - 0.39 in9.9 mm 3.45 in87.6 mm
10:20 PM 45.2°F7.3°C 44.9°F7.2°C 99% 10.4 mph NE16.7 kmh NE 12.7 mph20.4 kmh 31.80 in1076.9 mb - 0.44 in11.2 mm 3.50 in88.9 mm
10:25 PM 45.2°F7.3°C 44.9°F7.2°C 99% 12.7 mph NE20.4 kmh NE 13.8 mph22.2 kmh 31.80 in1076.9 mb - 0.47 in11.9 mm 3.54 in89.9 mm
10:30 PM 45.2°F7.3°C 44.9°F7.2°C 99% 13.8 mph NE22.2 kmh NE 15.0 mph24.1 kmh 31.80 in1076.9 mb - 0.46 in11.7 mm 3.55 in90.2 mm
10:35 PM 45.2°F7.3°C 44.9°F7.2°C 99% 16.1 mph ENE25.9 kmh ENE 17.3 mph27.8 kmh 31.80 in1076.9 mb - 0.45 in11.4 mm 3.56 in90.4 mm
10:40 PM 45.2°F7.3°C 44.9°F7.2°C 99% 15.0 mph NNE24.1 kmh NNE 15.0 mph24.1 kmh 31.80 in1076.9 mb - 0.44 in11.2 mm 3.56 in90.4 mm
10:45 PM 45.2°F7.3°C 44.9°F7.2°C 99% 13.8 mph NE22.2 kmh NE 13.8 mph22.2 kmh 31.80 in1076.9 mb - 0.44 in11.2 mm 3.58 in90.9 mm
10:50 PM 45.1°F7.3°C 44.8°F7.1°C 99% 13.8 mph NE22.2 kmh NE 17.3 mph27.8 kmh 31.80 in1076.9 mb - 0.43 in10.9 mm 3.59 in91.2 mm
10:55 PM 44.6°F7.0°C 44.3°F6.8°C 99% 12.7 mph NE20.4 kmh NE 12.7 mph20.4 kmh 31.80 in1076.9 mb - 0.40 in10.2 mm 3.60 in91.4 mm
11:00 PM 44.6°F7.0°C 44.3°F6.8°C 99% 13.8 mph ENE22.2 kmh ENE 17.3 mph27.8 kmh 31.80 in1076.9 mb - 0.32 in8.1 mm 3.60 in91.4 mm
11:10 PM 44.4°F6.9°C 44.1°F6.7°C 99% 12.7 mph NE20.4 kmh NE 13.8 mph22.2 kmh 31.80 in1076.9 mb - 0.22 in5.6 mm 3.62 in91.9 mm
11:15 PM 44.4°F6.9°C 44.1°F6.7°C 99% 13.8 mph NE22.2 kmh NE 15.0 mph24.1 kmh 31.80 in1076.9 mb - 0.19 in4.8 mm 3.64 in92.5 mm
11:20 PM 44.4°F6.9°C 44.1°F6.7°C 99% 16.1 mph NE25.9 kmh NE 18.4 mph29.6 kmh 31.80 in1076.9 mb - 0.18 in4.6 mm 3.66 in93.0 mm
11:25 PM 44.4°F6.9°C 44.1°F6.7°C 99% 17.3 mph NE27.8 kmh NE 17.3 mph27.8 kmh 31.80 in1076.9 mb - 0.13 in3.3 mm 3.66 in93.0 mm
11:30 PM 44.3°F6.8°C 44.0°F6.7°C 99% 16.1 mph NE25.9 kmh NE 16.1 mph25.9 kmh 31.80 in1076.9 mb - 0.14 in3.6 mm 3.69 in93.7 mm
11:35 PM 44.3°F6.8°C 44.0°F6.7°C 99% 13.8 mph NE22.2 kmh NE 16.1 mph25.9 kmh 31.80 in1076.9 mb - 0.15 in3.8 mm 3.71 in94.2 mm
11:40 PM 44.3°F6.8°C 44.0°F6.7°C 99% 12.7 mph NE20.4 kmh NE 13.8 mph22.2 kmh 31.80 in1076.9 mb - 0.16 in4.1 mm 3.72 in94.5 mm
11:45 PM 44.3°F6.8°C 44.0°F6.7°C 99% 15.0 mph ENE24.1 kmh ENE 15.0 mph24.1 kmh 31.80 in1076.9 mb - 0.16 in4.1 mm 3.74 in95.0 mm
11:50 PM 44.3°F6.8°C 44.0°F6.7°C 99% 13.8 mph NE22.2 kmh NE 17.3 mph27.8 kmh 31.80 in1076.9 mb - 0.15 in3.8 mm 3.74 in95.0 mm
11:55 PM 44.3°F6.8°C 44.0°F6.7°C 99% 12.7 mph NE20.4 kmh NE 15.0 mph24.1 kmh 31.80 in1076.9 mb - 0.15 in3.8 mm 3.75 in95.3 mm